Lone Tree, Illinois
Current Conditions -  °F | °C
As of 5:35 PM on Saturday 20 Dec 2014 (Local Time) from KC75 Reporting Station
Overcast Overcast  
Wind Chill: 28°   Ceiling: 4600
Heat Index: 32°   Visibility: 7mi
Dew Point: 27°   Wind: 5mph
Humidity: 81%   Direction: 160°SSE
Pressure: 30.24"   Gusts: NA
Location:  41.2776°N, 89.5099°W
Report Text: KC75 202335Z AUTO 16004KT 7SM OVC046 00/M03 A3024 RMK AO2 T00021027
Loading
Personal Weather Stations






























Interactive Weather Map New forecast layout! Learn more

10-Day Weather Forecast

Advertisements
Track Severe Weather on mobile